Piona logo

Wyniki

Jarosławska Piona
#51

Dystans:5 km
Data:2015-07-12 (niedziela)
Godzina:09:00
Miejscowość:Jarosław
Lokalizacja:Park miejski im. Bohaterów Monte Cassino - Zobacz trasę
Adres:Al. Szczepańskiego
Współrzędne GPS:50.0229, 22.6703 - Sprawdż na Google Maps
Wpisowe:brak
Liczba uczestników:27
Status:Zawody zakończone

OpenNumerKrajImięNazwiskoPłećR. ur.KMKategoria# KatMiejscowośćRezultat
[hh:mm:ss]
Tempo
[min/km]
1P168POLPolandMaciej TOMASZEWSKIM19971M18-191Widna Góra/Pawłosiów00:17:5403:35
2P304POLPolandMichałNASPIŃSKIM19962M18-192Wiązownica00:18:5403:47
3P227POLPolandArkadiuszJANICKIM19813M30-391JAROSŁAW00:19:1503:51
4P228POLPolandDawidKOPEĆM19984M16-171Radymno00:20:0604:01
5P122POLPolandJacekMAŚLANKAM19755M40-491Jarosław00:20:1704:03
6P101POLPolandMariuszMOTYKAM19636M50-591Radymno00:20:5104:10
7P125POLPolandAndrzejGWÓŹDŹM19687M40-492Jarosław00:21:3604:19
8P329POLPolandMarcinSTEMPAKM19838M30-392Szówsko00:21:5004:22
9P417POLPolandAdamTOMASZEWSKIM19879M20-291Pawłosiów00:22:0704:25
10P201POLPolandGrzegorzTARNOWSKIM198410M30-393Jarosław00:22:4904:34
11P287POLPolandBogdanGALUSZKAM197211M40-493jaroslaw00:23:0204:36
12P194POLPolandMartaORONOWICZK19691K40-491Munina00:23:0704:37
13P119POLPolandRobertKOZDROWICKIM196612M40-494Jarosław00:23:0904:38
14P333POLPolandEwelinaKOPROWICZK19812K30-391Jarosław00:24:1804:52
15P415POLPolandJakubSTĘCHŁYM199613M18-193Jarosław00:25:0005:00
16P205POLPolandWaldemarPLEBANKIEWICZM196414M50-592Jarosław00:25:0805:02
17P275POLPolandJacekJACKOWSKIM197215M40-495Jarosław00:26:0605:13
18P190POLPolandKarolina CISEKK19943K20-291Jarosław00:26:1905:16
19P274POLPolandEwaJACKOWSKAK19744K40-492Jarosław00:26:2005:16
20P426POLPolandAnnaPIGANK19795K30-392Szówsko00:26:2205:16
21P239POLPolandPrzemysławPASZKOM197716M30-394Jarosław00:26:2405:17
22P425POLPolandPaweł SZYMSKIM197717M30-395Jarosław 00:26:2505:17
23P262POLPolandEwelinaGAŁKAK19896K20-292Jarosław00:28:0505:37
24P424POLPolandAndrzejGWÓŹDŹM196018M50-593Munina00:31:5106:22
25P198POLPolandPawełHAJNUSM197119M40-496Jarosław00:31:5506:23
26P214POLPolandKingaKOPAŃSKAK19967K18-191Jarosław00:32:0606:25
27P142POLPolandJolanta MICKIEWICZK19708K40-493Jarosław00:32:0606:25

Jeśli widzisz błąd w wynikach prosimy o kontakt.

© 2014 Piona
Przemyśl Jarosławska Grupa Biegowa SOKÓŁ
Piona ikona